»·PEaware :: N1728X KCMA-KSBD

N1728X :: KCMA-KSBD

FLIGHT INFORMATION

Flight Status: Arrived
Operator: Privately registered:
United States
More flights under this callsign
Pilot: Leonard B. (9579)
Aircraft: CESSNA 172 SKYHAWK
(C172)
More flights by this aircraft type
Origin: KCMA Camarillo
United States
Destination: KSBD San Bernardino Intl
United States
More flights between these airports :: More routes between these airports
Route: VTU044R GINNA V326 VNY V186 PDZ
File this flight plan on PilotEdge
Remarks: +CW / TEC route VTUP15
Altitude:
(Current/Filed)
5,000ft
Speed:
(Current/Filed)
110kts
Departed: 20-Oct-19 02:47 PM
Arrived: 20-Oct-19 04:11 PM
Distance/Time
Traveled:
92nm/1:24
Distance/Time
To Go:
Arrived

Flight Plot

Page will automatically refresh every two minutes.


Map Options




Map Legend


Flown Route
Filed Route
Departure Airport
Arrival Airport
Navaid (VOR, NDB)
Fix

Horizontal Profiles

Position Reports

Time Latitude Longitude Heading Altitude Ground
Speed
20-Oct-19 14:17 34.210350 -119.076467 90 80ft 0kts
20-Oct-19 14:18 34.210350 -119.076467 90 80ft 0kts
20-Oct-19 14:19 34.210350 -119.076467 90 80ft 0kts
20-Oct-19 14:20 34.210350 -119.076467 90 80ft 0kts
20-Oct-19 14:21 34.210350 -119.076467 90 80ft 0kts
20-Oct-19 14:22 34.210350 -119.076467 90 80ft 0kts
20-Oct-19 14:23 34.210350 -119.076467 90 80ft 0kts
20-Oct-19 14:24 34.210350 -119.076467 90 80ft 0kts
20-Oct-19 14:25 34.210350 -119.076467 90 80ft 0kts
20-Oct-19 14:26 34.210350 -119.076467 90 80ft 0kts
20-Oct-19 14:27 34.210350 -119.076467 90 80ft 0kts
20-Oct-19 14:28 34.210350 -119.076467 90 80ft 0kts
20-Oct-19 14:29 34.210350 -119.076467 90 80ft 0kts
20-Oct-19 14:30 34.210350 -119.076467 90 80ft 0kts
20-Oct-19 14:31 34.210350 -119.076467 90 80ft 0kts
20-Oct-19 14:32 34.210350 -119.076467 90 80ft 0kts
20-Oct-19 14:33 34.210350 -119.076467 90 80ft 0kts
20-Oct-19 14:34 34.210350 -119.076467 90 80ft 0kts
20-Oct-19 14:35 34.210350 -119.076467 90 80ft 0kts
20-Oct-19 14:36 34.210350 -119.076467 90 80ft 0kts
20-Oct-19 14:37 34.210350 -119.076467 90 80ft 0kts
20-Oct-19 14:38 34.210350 -119.076467 90 80ft 0kts
20-Oct-19 14:39 34.210350 -119.076467 90 80ft 0kts
20-Oct-19 14:40 34.210350 -119.076467 90 80ft 0kts
20-Oct-19 14:41 34.210350 -119.076467 90 80ft 0kts
20-Oct-19 14:42 34.210644 -119.076004 47 80ft 10kts
20-Oct-19 14:43 34.210872 -119.078698 269 78ft 14kts
20-Oct-19 14:44 34.211023 -119.084478 310 74ft 12kts
20-Oct-19 14:45 34.212706 -119.084602 358 76ft 0kts
20-Oct-19 14:46 34.213710 -119.088740 271 74ft 69kts
20-Oct-19 14:47 34.207166 -119.115506 235 669ft 92kts
20-Oct-19 14:48 34.194295 -119.143043 238 1349ft 96kts
20-Oct-19 14:49 34.181543 -119.172905 236 1945ft 104kts
20-Oct-19 14:50 34.167521 -119.204434 236 2498ft 108kts
20-Oct-19 14:51 34.153541 -119.236795 236 3040ft 109kts
20-Oct-19 14:52 34.139917 -119.269658 237 3593ft 109kts
20-Oct-19 14:53 34.150262 -119.294086 30 4126ft 87kts
20-Oct-19 14:54 34.164587 -119.275431 62 4667ft 74kts
20-Oct-19 14:55 34.178136 -119.255632 62 5009ft 90kts
20-Oct-19 14:56 34.190290 -119.229018 91 5002ft 90kts
20-Oct-19 14:57 34.191130 -119.198427 90 5000ft 91kts
20-Oct-19 14:58 34.192394 -119.167512 90 5000ft 92kts
20-Oct-19 14:59 34.193815 -119.136564 90 5003ft 92kts
20-Oct-19 15:00 34.195289 -119.105552 90 5003ft 92kts
20-Oct-19 15:01 34.196782 -119.074434 89 4998ft 92kts
20-Oct-19 15:02 34.198272 -119.043390 90 5003ft 92kts
20-Oct-19 15:03 34.199753 -119.012336 89 4999ft 92kts
20-Oct-19 15:04 34.201232 -118.981482 89 4998ft 91kts
20-Oct-19 15:05 34.202718 -118.950176 89 5002ft 94kts
20-Oct-19 15:06 34.204195 -118.918863 89 5002ft 92kts
20-Oct-19 15:07 34.205645 -118.887944 89 4999ft 92kts
20-Oct-19 15:08 34.207082 -118.857141 89 4998ft 91kts
20-Oct-19 15:09 34.208506 -118.826424 89 4997ft 91kts
20-Oct-19 15:10 34.209928 -118.795579 89 4998ft 91kts
20-Oct-19 15:11 34.211334 -118.764936 89 4997ft 91kts
20-Oct-19 15:12 34.212736 -118.734201 89 4999ft 91kts
20-Oct-19 15:13 34.214136 -118.703349 89 5000ft 91kts
20-Oct-19 15:14 34.215524 -118.672598 89 4997ft 91kts
20-Oct-19 15:15 34.216903 -118.641836 89 4998ft 91kts
20-Oct-19 15:16 34.218271 -118.611176 90 5004ft 91kts
20-Oct-19 15:17 34.219644 -118.580323 90 5004ft 91kts
20-Oct-19 15:18 34.220997 -118.549576 89 4997ft 91kts
20-Oct-19 15:19 34.222347 -118.518756 90 4998ft 91kts
20-Oct-19 15:20 34.221673 -118.488504 106 4996ft 90kts
20-Oct-19 15:21 34.213499 -118.459596 107 4996ft 90kts
20-Oct-19 15:22 34.205001 -118.430855 108 4998ft 91kts
20-Oct-19 15:23 34.196388 -118.402190 108 4996ft 90kts
20-Oct-19 15:24 34.187744 -118.373602 108 4996ft 90kts
20-Oct-19 15:25 34.179181 -118.345374 108 5001ft 90kts
20-Oct-19 15:26 34.170417 -118.316543 108 5000ft 91kts
20-Oct-19 15:27 34.161594 -118.287551 108 5001ft 91kts
20-Oct-19 15:28 34.152761 -118.258550 108 5002ft 91kts
20-Oct-19 15:29 34.143922 -118.229548 108 4999ft 91kts
20-Oct-19 15:30 34.135072 -118.200535 108 5001ft 92kts
20-Oct-19 15:31 34.126214 -118.171537 108 4999ft 91kts
20-Oct-19 15:32 34.117378 -118.142651 108 5004ft 92kts
20-Oct-19 15:33 34.108456 -118.113500 108 5003ft 92kts
20-Oct-19 15:34 34.099556 -118.084491 108 5001ft 91kts
20-Oct-19 15:35 34.090711 -118.055670 108 5004ft 92kts
20-Oct-19 15:36 34.081786 -118.026615 108 4998ft 91kts
20-Oct-19 15:37 34.072874 -117.997627 108 5000ft 92kts
20-Oct-19 15:38 34.063910 -117.968478 108 5002ft 93kts
20-Oct-19 15:39 34.054949 -117.939382 108 5003ft 91kts
20-Oct-19 15:40 34.045979 -117.910444 109 4998ft 91kts
20-Oct-19 15:41 34.036564 -117.881994 109 5000ft 91kts
20-Oct-19 15:42 34.027037 -117.853394 109 5000ft 91kts
20-Oct-19 15:43 34.017544 -117.824978 109 4998ft 91kts
20-Oct-19 15:44 34.008028 -117.796580 109 4998ft 91kts
20-Oct-19 15:45 33.998489 -117.768142 109 4998ft 91kts
20-Oct-19 15:46 33.988961 -117.739729 109 4996ft 91kts
20-Oct-19 15:47 33.979429 -117.711327 109 5002ft 91kts
20-Oct-19 15:48 33.969840 -117.682786 109 4998ft 91kts
20-Oct-19 15:49 33.960315 -117.654454 110 5002ft 91kts
20-Oct-19 15:50 33.950722 -117.625948 109 4997ft 91kts
20-Oct-19 15:51 33.941143 -117.597501 109 4998ft 92kts
20-Oct-19 15:52 33.931528 -117.568990 109 4997ft 91kts
20-Oct-19 15:54 33.922065 -117.540703 103 5000ft 90kts
20-Oct-19 15:55 33.943003 -117.520600 32 4999ft 110kts
20-Oct-19 15:56 33.972143 -117.508585 29 4996ft 111kts
20-Oct-19 15:57 33.999351 -117.498193 31 4585ft 85kts
20-Oct-19 15:58 34.017763 -117.487784 73 3961ft 56kts
20-Oct-19 15:59 34.026435 -117.470335 81 3866ft 61kts
20-Oct-19 16:00 34.032134 -117.449160 73 3818ft 56kts
20-Oct-19 16:01 34.038058 -117.431292 85 3772ft 57kts
20-Oct-19 16:02 34.043085 -117.413793 79 3878ft 55kts
20-Oct-19 16:03 34.047631 -117.395010 85 3659ft 59kts
20-Oct-19 16:04 34.054011 -117.375495 80 3293ft 65kts
20-Oct-19 16:05 34.059875 -117.355221 76 2946ft 66kts
20-Oct-19 16:06 34.065950 -117.334258 78 2604ft 67kts
20-Oct-19 16:07 34.072199 -117.313231 75 2227ft 66kts
20-Oct-19 16:08 34.078395 -117.292037 74 1853ft 66kts
20-Oct-19 16:09 34.084612 -117.271523 74 1483ft 63kts
20-Oct-19 16:10 34.090296 -117.251885 72 1176ft 60kts
20-Oct-19 16:11 34.093591 -117.241629 45 1100ft 17kts

Navigation Log

Ident Type
Flight plan parsing failed, navigation log unavailable